Terminal Aerodrome Forecast
Issued by NWS Tuscon, AZ

Home | Current Version | Previous Version | Text Only | Print | Product List | Glossary On
Versions: 1 2 3 4 5 6 7 8 9 10 11 12
095
FTUS45 KTWC 261126
TAFTUS
TAF
KTUS 261126Z 2612/2712 VRB04KT P6SM SKC
     FM261700 30010G17KT P6SM SKC
     FM270200 24008KT P6SM SKC
     FM271000 14006KT P6SM SKC=

USA.gov is the U.S. government's official web portal to all federal, state and local government web resources and services.